Time;durP1;ratioP1;P1;durP2;ratioP2;P2;SDS_P1;SDS_P2;PMS_P1;PMS_P2;Temp;Humidity;BMP_temperature;BMP_pressure;BME280_temperature;BME280_humidity;BME280_pressure;Samples;Min_cycle;Max_cycle;Signal;HPM_P1;HPM_P2
2022/10/04 00:02:23;;;;;;;8.13;5.95;;;;;;;;;;743157;187;919896;-69
2022/10/04 00:04:50;;;;;;;15.17;6.40;;;;;;;;;;744388;186;920393;-69
2022/10/04 00:07:16;;;;;;;9.70;6.50;;;;;;;;;;751695;186;919741;-71
2022/10/04 00:09:44;;;;;;;9.97;6.00;;;;;;;;;;741514;187;919396;-64
2022/10/04 00:12:16;;;;;;;13.23;6.63;;;;;;;;;;740989;185;919349;-64
2022/10/04 00:14:41;;;;;;;10.87;7.40;;;;;;;;;;750264;187;818355;-64
2022/10/04 00:17:07;;;;;;;12.23;7.47;;;;;;;;;;744123;187;915326;-65
2022/10/04 00:19:37;;;;;;;11.57;8.07;;;;;;;;;;743650;186;917154;-65
2022/10/04 00:22:11;;;;;;;10.17;7.23;;;;;;;;;;748767;184;858318;-64
2022/10/04 00:24:37;;;;;;;14.90;7.87;;;;;;;;;;749075;185;816977;-69
2022/10/04 00:27:10;;;;;;;17.33;8.20;;;;;;;;;;741209;187;917276;-69
2022/10/04 00:29:35;;;;;;;13.20;8.33;;;;;;;;;;741911;187;877589;-69
2022/10/04 00:32:19;;;;;;;14.45;8.10;;;;;;;;;;742401;187;918225;-65
2022/10/04 00:34:46;;;;;;;9.60;7.13;;;;;;;;;;738310;187;919752;-65
2022/10/04 00:37:12;;;;;;;13.43;7.90;;;;;;;;;;746942;188;918755;-65
2022/10/04 00:39:38;;;;;;;13.40;9.50;;;;;;;;;;744301;187;919082;-68
2022/10/04 00:42:05;;;;;;;14.57;9.13;;;;;;;;;;742479;187;919393;-68
2022/10/04 00:44:33;;;;;;;14.37;9.10;;;;;;;;;;742992;187;920396;-65
2022/10/04 00:46:59;;;;;;;16.70;8.43;;;;;;;;;;743157;187;919710;-69
2022/10/04 00:49:24;;;;;;;15.83;8.07;;;;;;;;;;743709;187;920012;-68
2022/10/04 00:51:51;;;;;;;10.98;9.05;;;;;;;;;;740956;187;920049;-70
2022/10/04 00:54:17;;;;;;;13.73;8.90;;;;;;;;;;747111;187;918805;-64
2022/10/04 00:56:46;;;;;;;14.33;8.70;;;;;;;;;;740502;185;919182;-64
2022/10/04 00:59:11;;;;;;;13.03;10.03;;;;;;;;;;743974;186;917164;-64
2022/10/04 01:01:37;;;;;;;11.93;10.30;;;;;;;;;;750436;186;919238;-69
2022/10/04 01:04:03;;;;;;;19.87;11.50;;;;;;;;;;750012;184;919067;-64
2022/10/04 01:06:29;;;;;;;14.63;11.13;;;;;;;;;;747393;186;899897;-64
2022/10/04 01:08:55;;;;;;;20.23;12.47;;;;;;;;;;743238;186;917612;-71
2022/10/04 01:11:21;;;;;;;18.60;11.80;;;;;;;;;;748437;187;916455;-73
2022/10/04 01:13:49;;;;;;;15.73;11.27;;;;;;;;;;743535;187;916839;-66
2022/10/04 01:16:24;;;;;;;16.00;11.93;;;;;;;;;;743888;186;913253;-69
2022/10/04 01:18:50;;;;;;;21.03;13.57;;;;;;;;;;743001;187;919164;-68
2022/10/04 01:21:27;;;;;;;19.33;10.83;;;;;;;;;;749689;187;916561;-68
2022/10/04 01:24:08;;;;;;;17.93;12.50;;;;;;;;;;742327;187;919224;-78
2022/10/04 01:26:35;;;;;;;16.77;11.95;;;;;;;;;;741933;186;1025492;-67
2022/10/04 01:29:00;;;;;;;17.37;11.10;;;;;;;;;;746816;185;921000;-66
2022/10/04 01:31:26;;;;;;;16.47;10.03;;;;;;;;;;743689;187;822987;-72
2022/10/04 01:33:52;;;;;;;14.70;11.23;;;;;;;;;;748150;187;917687;-71
2022/10/04 01:36:19;;;;;;;11.20;9.90;;;;;;;;;;742817;187;923266;-71
2022/10/04 01:38:44;;;;;;;13.33;10.60;;;;;;;;;;740764;187;921143;-66
2022/10/04 01:41:10;;;;;;;16.53;10.10;;;;;;;;;;750879;187;919047;-66
2022/10/04 01:43:36;;;;;;;13.10;9.37;;;;;;;;;;742413;187;816095;-70
2022/10/04 01:46:05;;;;;;;11.43;9.93;;;;;;;;;;741238;185;914818;-69
2022/10/04 01:48:31;;;;;;;15.02;10.27;;;;;;;;;;743804;186;939375;-70
2022/10/04 01:50:58;;;;;;;17.43;10.37;;;;;;;;;;748919;186;919418;-71
2022/10/04 01:53:28;;;;;;;16.17;10.27;;;;;;;;;;733020;187;920297;-70
2022/10/04 01:55:54;;;;;;;16.10;10.40;;;;;;;;;;740320;187;919370;-66
2022/10/04 01:58:20;;;;;;;15.83;11.20;;;;;;;;;;747881;185;913808;-71
2022/10/04 02:00:46;;;;;;;13.63;9.33;;;;;;;;;;742476;187;918366;-66
2022/10/04 02:03:13;;;;;;;23.73;11.90;;;;;;;;;;739946;187;921781;-71
2022/10/04 02:05:39;;;;;;;14.63;9.85;;;;;;;;;;746087;184;918457;-66
2022/10/04 02:08:08;;;;;;;12.50;9.20;;;;;;;;;;750738;186;922587;-70
2022/10/04 02:10:35;;;;;;;22.70;9.73;;;;;;;;;;741260;187;919531;-66
2022/10/04 02:13:00;;;;;;;13.05;8.85;;;;;;;;;;741849;186;1750393;-70
2022/10/04 02:15:26;;;;;;;8.90;7.73;;;;;;;;;;750930;186;918683;-66
2022/10/04 02:17:51;;;;;;;12.73;8.50;;;;;;;;;;745219;187;915676;-66
2022/10/04 02:20:17;;;;;;;20.10;9.23;;;;;;;;;;744729;185;816783;-67
2022/10/04 02:22:43;;;;;;;13.73;8.17;;;;;;;;;;748470;186;834847;-66
2022/10/04 02:25:09;;;;;;;16.07;9.40;;;;;;;;;;746286;187;919184;-70
2022/10/04 02:27:35;;;;;;;8.93;7.40;;;;;;;;;;745794;186;864390;-66
2022/10/04 02:30:02;;;;;;;9.07;7.60;;;;;;;;;;744377;187;864971;-70
2022/10/04 02:35:00;;;;;;;10.70;8.53;;;;;;;;;;738078;187;916864;-64
2022/10/04 02:37:26;;;;;;;12.40;8.73;;;;;;;;;;739567;184;1021117;-65
2022/10/04 02:39:52;;;;;;;10.93;8.00;;;;;;;;;;745981;187;919047;-70
2022/10/04 02:42:18;;;;;;;12.03;7.90;;;;;;;;;;743119;184;919458;-70
2022/10/04 02:44:55;;;;;;;13.37;8.73;;;;;;;;;;746067;186;920172;-65
2022/10/04 02:47:21;;;;;;;8.63;7.77;;;;;;;;;;738867;187;916270;-66
2022/10/04 02:50:01;;;;;;;10.93;8.20;;;;;;;;;;749415;187;879468;-66
2022/10/04 02:52:28;;;;;;;8.83;7.83;;;;;;;;;;749094;186;619306;-71
2022/10/04 02:54:53;;;;;;;12.40;8.87;;;;;;;;;;744028;187;627164;-67
2022/10/04 02:57:19;;;;;;;15.80;10.70;;;;;;;;;;743503;187;920505;-72
2022/10/04 02:59:45;;;;;;;13.20;9.33;;;;;;;;;;747160;187;632208;-67
2022/10/04 03:02:16;;;;;;;20.40;9.67;;;;;;;;;;746295;188;614204;-67
2022/10/04 03:04:42;;;;;;;11.83;8.10;;;;;;;;;;743374;186;717118;-66
2022/10/04 03:07:08;;;;;;;10.00;8.40;;;;;;;;;;738950;185;919193;-67
2022/10/04 03:09:35;;;;;;;9.50;8.50;;;;;;;;;;746846;187;919576;-71
2022/10/04 03:12:01;;;;;;;14.03;8.93;;;;;;;;;;740782;187;918463;-67
2022/10/04 03:14:26;;;;;;;16.73;9.17;;;;;;;;;;741369;186;919150;-72
2022/10/04 03:16:52;;;;;;;12.47;8.53;;;;;;;;;;742773;187;813599;-67
2022/10/04 03:19:18;;;;;;;10.20;7.60;;;;;;;;;;744472;186;915135;-71
2022/10/04 03:21:43;;;;;;;11.43;7.73;;;;;;;;;;742503;187;917123;-67
2022/10/04 03:24:09;;;;;;;10.73;8.60;;;;;;;;;;744286;186;915690;-67
2022/10/04 03:26:36;;;;;;;8.53;7.20;;;;;;;;;;747967;186;915690;-67
2022/10/04 03:29:02;;;;;;;10.73;7.70;;;;;;;;;;741771;185;919446;-71
2022/10/04 03:31:28;;;;;;;9.00;8.03;;;;;;;;;;742205;185;1020897;-72
2022/10/04 03:33:55;;;;;;;12.53;8.57;;;;;;;;;;749787;185;919189;-72
2022/10/04 03:36:20;;;;;;;10.63;7.83;;;;;;;;;;746193;185;916635;-72
2022/10/04 03:38:46;;;;;;;9.10;7.33;;;;;;;;;;745700;186;922327;-66
2022/10/04 03:41:12;;;;;;;10.48;7.35;;;;;;;;;;745262;184;937680;-71
2022/10/04 03:43:38;;;;;;;9.20;8.00;;;;;;;;;;751571;185;817432;-66
2022/10/04 03:46:04;;;;;;;9.57;7.30;;;;;;;;;;743497;186;919111;-67
2022/10/04 03:48:45;;;;;;;10.95;7.97;;;;;;;;;;741671;185;919914;-67
2022/10/04 03:51:12;;;;;;;13.53;8.23;;;;;;;;;;743010;185;916184;-66
2022/10/04 03:53:41;;;;;;;9.27;7.80;;;;;;;;;;747678;187;824572;-71
2022/10/04 03:56:19;;;;;;;21.80;8.20;;;;;;;;;;743283;186;818101;-67
2022/10/04 03:58:45;;;;;;;10.43;8.77;;;;;;;;;;747383;186;624254;-67
2022/10/04 04:01:12;;;;;;;14.20;8.43;;;;;;;;;;745253;186;618641;-66
2022/10/04 04:03:40;;;;;;;12.33;8.10;;;;;;;;;;747568;186;918055;-66
2022/10/04 04:06:06;;;;;;;18.10;8.50;;;;;;;;;;747539;186;915101;-73
2022/10/04 04:08:32;;;;;;;11.37;9.73;;;;;;;;;;744367;186;623712;-67
2022/10/04 04:10:58;;;;;;;16.83;8.67;;;;;;;;;;745708;187;625989;-72
2022/10/04 04:13:25;;;;;;;14.80;8.77;;;;;;;;;;750493;186;625834;-75
2022/10/04 04:15:50;;;;;;;13.97;8.13;;;;;;;;;;744080;182;914489;-69
2022/10/04 04:18:17;;;;;;;19.00;8.90;;;;;;;;;;745075;187;634540;-68
2022/10/04 04:20:43;;;;;;;13.90;9.77;;;;;;;;;;750388;185;629206;-74
2022/10/04 04:23:20;;;;;;;12.10;8.03;;;;;;;;;;742919;186;919089;-73
2022/10/04 04:25:46;;;;;;;12.43;8.83;;;;;;;;;;742790;187;919080;-68
2022/10/04 04:28:28;;;;;;;14.67;8.83;;;;;;;;;;739916;186;918991;-67
2022/10/04 04:30:54;;;;;;;12.50;8.70;;;;;;;;;;739254;186;918654;-72
2022/10/04 04:33:22;;;;;;;12.10;7.97;;;;;;;;;;747453;185;919481;-67
2022/10/04 04:35:48;;;;;;;14.10;9.57;;;;;;;;;;744968;186;919623;-66
2022/10/04 04:38:17;;;;;;;9.10;8.20;;;;;;;;;;744079;186;918160;-67
2022/10/04 04:40:43;;;;;;;11.03;9.93;;;;;;;;;;746333;184;918499;-68
2022/10/04 04:43:09;;;;;;;13.10;9.03;;;;;;;;;;744092;186;919113;-67
2022/10/04 04:45:35;;;;;;;10.98;8.05;;;;;;;;;;743651;186;916560;-67
2022/10/04 04:48:02;;;;;;;10.63;8.60;;;;;;;;;;743298;187;917410;-67
2022/10/04 04:50:29;;;;;;;9.10;7.77;;;;;;;;;;747997;186;908714;-73
2022/10/04 04:53:14;;;;;;;11.18;8.90;;;;;;;;;;739256;186;918788;-73
2022/10/04 04:55:42;;;;;;;17.73;10.67;;;;;;;;;;742222;187;916579;-72
2022/10/04 04:58:08;;;;;;;10.13;8.80;;;;;;;;;;743089;187;917987;-72
2022/10/04 05:00:34;;;;;;;11.60;9.53;;;;;;;;;;743120;187;918075;-67
2022/10/04 05:03:00;;;;;;;14.13;9.00;;;;;;;;;;752323;186;889334;-67
2022/10/04 05:05:26;;;;;;;11.00;8.80;;;;;;;;;;742699;186;918950;-67
2022/10/04 05:07:58;;;;;;;10.20;8.83;;;;;;;;;;740819;184;954780;-72
2022/10/04 05:10:30;;;;;;;11.20;9.00;;;;;;;;;;747478;187;918215;-67
2022/10/04 05:12:54;;;;;;;10.00;9.00;;;;;;;;;;750799;186;918030;-73
2022/10/04 05:15:21;;;;;;;11.63;8.53;;;;;;;;;;739477;187;919295;-73
2022/10/04 05:17:46;;;;;;;13.70;8.60;;;;;;;;;;742437;187;816256;-73
2022/10/04 05:20:12;;;;;;;10.10;8.53;;;;;;;;;;748347;187;919076;-67
2022/10/04 05:22:38;;;;;;;10.93;8.53;;;;;;;;;;743932;187;919484;-67
2022/10/04 05:25:05;;;;;;;13.50;7.70;;;;;;;;;;742061;186;919408;-73
2022/10/04 05:27:35;;;;;;;9.97;7.37;;;;;;;;;;747259;187;913053;-69
2022/10/04 05:30:01;;;;;;;11.20;8.17;;;;;;;;;;753493;185;715936;-70
2022/10/04 05:32:27;;;;;;;8.93;7.40;;;;;;;;;;743024;185;883072;-70
2022/10/04 05:34:53;;;;;;;10.33;7.43;;;;;;;;;;740630;186;813275;-70
2022/10/04 05:37:31;;;;;;;10.67;7.73;;;;;;;;;;748132;187;795120;-77
2022/10/04 05:40:07;;;;;;;16.50;8.63;;;;;;;;;;748546;185;919065;-76
2022/10/04 05:42:33;;;;;;;13.77;7.53;;;;;;;;;;742985;185;876674;-75
2022/10/04 05:45:00;;;;;;;10.40;8.10;;;;;;;;;;742515;187;939118;-74
2022/10/04 05:47:26;;;;;;;8.93;7.95;;;;;;;;;;746525;186;916070;-73
2022/10/04 05:49:52;;;;;;;11.93;7.67;;;;;;;;;;744396;185;916241;-73
2022/10/04 05:52:23;;;;;;;13.30;7.80;;;;;;;;;;744003;187;918081;-68
2022/10/04 05:54:51;;;;;;;9.57;7.90;;;;;;;;;;742249;186;915787;-73
2022/10/04 05:57:35;;;;;;;11.13;7.87;;;;;;;;;;744927;187;917079;-67
2022/10/04 06:00:06;;;;;;;15.40;7.30;;;;;;;;;;749308;185;918697;-71
2022/10/04 06:02:35;;;;;;;14.10;8.70;;;;;;;;;;754915;185;918066;-67
2022/10/04 06:05:17;;;;;;;13.67;9.17;;;;;;;;;;742703;187;907972;-67
2022/10/04 06:07:47;;;;;;;16.60;8.80;;;;;;;;;;740029;186;939993;-72
2022/10/04 06:10:19;;;;;;;10.77;8.80;;;;;;;;;;741920;186;815900;-73
2022/10/04 06:12:50;;;;;;;11.27;6.73;;;;;;;;;;741714;184;805991;-71
2022/10/04 06:15:32;;;;;;;14.30;8.17;;;;;;;;;;745762;186;918164;-72
2022/10/04 06:17:58;;;;;;;10.53;6.93;;;;;;;;;;750523;186;921015;-72
2022/10/04 06:20:27;;;;;;;10.00;7.57;;;;;;;;;;742366;186;919584;-70
2022/10/04 06:22:54;;;;;;;11.87;6.30;;;;;;;;;;743514;186;916382;-67
2022/10/04 06:25:23;;;;;;;12.10;6.80;;;;;;;;;;744041;187;866552;-71
2022/10/04 06:27:48;;;;;;;8.03;6.53;;;;;;;;;;748178;186;918485;-66
2022/10/04 06:30:14;;;;;;;9.87;6.40;;;;;;;;;;742930;185;919064;-71
2022/10/04 06:32:57;;;;;;;10.33;6.30;;;;;;;;;;744044;186;916156;-67
2022/10/04 06:35:29;;;;;;;9.77;6.55;;;;;;;;;;737091;188;922674;-67
2022/10/04 06:37:57;;;;;;;9.30;6.03;;;;;;;;;;743055;186;920757;-67
2022/10/04 06:40:32;;;;;;;7.57;6.00;;;;;;;;;;733297;190;919309;-73
2022/10/04 06:43:01;;;;;;;7.90;5.53;;;;;;;;;;743544;186;919459;-74
2022/10/04 06:45:28;;;;;;;7.57;5.13;;;;;;;;;;741362;186;906628;-75
2022/10/04 06:48:04;;;;;;;9.87;6.47;;;;;;;;;;740630;185;920475;-68
2022/10/04 06:50:44;;;;;;;15.23;5.67;;;;;;;;;;746891;187;818406;-68
2022/10/04 06:53:25;;;;;;;9.47;5.80;;;;;;;;;;750752;187;872036;-75
2022/10/04 06:55:54;;;;;;;11.80;6.17;;;;;;;;;;752118;186;816514;-68
2022/10/04 06:58:23;;;;;;;11.57;6.20;;;;;;;;;;749557;186;919575;-69
2022/10/04 07:00:53;;;;;;;10.30;5.90;;;;;;;;;;742761;184;918764;-76
2022/10/04 07:03:19;;;;;;;10.00;5.67;;;;;;;;;;744372;187;805912;-75
2022/10/04 07:05:45;;;;;;;7.50;5.10;;;;;;;;;;747446;187;919102;-69
2022/10/04 07:08:29;;;;;;;7.20;5.00;;;;;;;;;;742453;185;916046;-75
2022/10/04 07:10:47;;;;;;;12.90;8.07;;;;;;;;;;742905;185;818766;-75
2022/10/04 07:13:15;;;;;;;11.80;7.27;;;;;;;;;;740452;187;918902;-75
2022/10/04 07:15:43;;;;;;;18.63;11.50;;;;;;;;;;746527;186;919083;-69
2022/10/04 07:18:08;;;;;;;19.00;9.97;;;;;;;;;;742850;183;918567;-77
2022/10/04 07:20:33;;;;;;;16.30;9.50;;;;;;;;;;742169;183;916390;-69
2022/10/04 07:22:59;;;;;;;14.60;7.43;;;;;;;;;;742507;185;912859;-70
2022/10/04 07:25:27;;;;;;;14.83;7.60;;;;;;;;;;743489;186;914987;-79
2022/10/04 07:30:25;;;;;;;8.87;6.43;;;;;;;;;;741526;187;915595;-77
2022/10/04 07:32:51;;;;;;;10.37;7.60;;;;;;;;;;745962;187;918774;-69
2022/10/04 07:35:21;;;;;;;13.80;8.57;;;;;;;;;;743038;185;918861;-75
2022/10/04 07:37:52;;;;;;;9.10;7.50;;;;;;;;;;739957;184;919485;-68
2022/10/04 07:40:21;;;;;;;8.60;6.33;;;;;;;;;;741558;184;918577;-75
2022/10/04 07:42:47;;;;;;;11.17;8.37;;;;;;;;;;748311;187;820792;-69
2022/10/04 07:45:16;;;;;;;11.67;8.20;;;;;;;;;;745431;186;816701;-68
2022/10/04 07:47:42;;;;;;;23.47;14.33;;;;;;;;;;740898;187;849548;-74
2022/10/04 07:50:18;;;;;;;10.93;7.40;;;;;;;;;;741489;187;873561;-74
2022/10/04 07:52:47;;;;;;;7.25;5.35;;;;;;;;;;742606;184;918400;-73
2022/10/04 07:55:14;;;;;;;7.80;4.93;;;;;;;;;;751772;187;819719;-72
2022/10/04 07:57:39;;;;;;;8.50;3.70;;;;;;;;;;740247;187;919218;-66
2022/10/04 08:00:08;;;;;;;9.40;5.60;;;;;;;;;;740853;187;922423;-66
2022/10/04 08:02:52;;;;;;;5.67;3.73;;;;;;;;;;747171;187;919460;-67
2022/10/04 08:05:19;;;;;;;6.80;3.57;;;;;;;;;;750045;185;918878;-66
2022/10/04 08:07:46;;;;;;;6.47;3.33;;;;;;;;;;748052;185;917308;-66
2022/10/04 08:10:28;;;;;;;7.73;2.83;;;;;;;;;;738214;187;920568;-66
2022/10/04 08:12:57;;;;;;;7.03;2.70;;;;;;;;;;747283;183;919132;-66
2022/10/04 08:15:28;;;;;;;55.03;29.10;;;;;;;;;;739961;185;919976;-71
2022/10/04 08:17:56;;;;;;;16.17;9.03;;;;;;;;;;750283;186;919357;-67
2022/10/04 08:20:23;;;;;;;6.17;3.90;;;;;;;;;;745776;185;919746;-66
2022/10/04 08:22:49;;;;;;;13.00;4.27;;;;;;;;;;744136;185;880703;-71
2022/10/04 08:25:18;;;;;;;6.00;3.17;;;;;;;;;;741954;186;919400;-66
2022/10/04 08:29:41;;;;;;;16.67;3.00;;;;;;;;;;750090;187;918852;-66
2022/10/04 08:30:12;;;;;;;5.90;2.67;;;;;;;;;;742176;186;919422;-66
2022/10/04 08:32:40;;;;;;;3.40;2.10;;;;;;;;;;742394;187;914228;-68
2022/10/04 08:35:08;;;;;;;7.03;2.67;;;;;;;;;;741219;187;916005;-69
2022/10/04 08:37:34;;;;;;;6.00;2.62;;;;;;;;;;743271;187;919066;-71
2022/10/04 08:40:02;;;;;;;4.30;2.57;;;;;;;;;;741575;187;912987;-65
2022/10/04 08:42:29;;;;;;;9.97;2.50;;;;;;;;;;743291;186;866102;-70
2022/10/04 08:45:15;;;;;;;8.40;2.50;;;;;;;;;;747285;185;909764;-66
2022/10/04 08:47:56;;;;;;;8.23;2.03;;;;;;;;;;745135;187;813956;-65
2022/10/04 08:50:23;;;;;;;7.68;2.65;;;;;;;;;;742444;186;920468;-66
2022/10/04 08:52:51;;;;;;;4.10;2.17;;;;;;;;;;747170;186;985476;-65
2022/10/04 08:55:36;;;;;;;5.33;2.30;;;;;;;;;;744808;187;919404;-65
2022/10/04 08:58:15;;;;;;;4.35;2.00;;;;;;;;;;735906;188;917832;-72
2022/10/04 09:00:47;;;;;;;7.30;1.80;;;;;;;;;;742299;186;918659;-66
2022/10/04 09:03:13;;;;;;;7.73;2.20;;;;;;;;;;738331;187;916448;-71
2022/10/04 09:05:40;;;;;;;4.80;2.10;;;;;;;;;;740893;187;921188;-70
2022/10/04 09:08:10;;;;;;;7.87;1.87;;;;;;;;;;747902;186;920132;-66
2022/10/04 09:10:39;;;;;;;4.93;1.60;;;;;;;;;;740372;187;918579;-73
2022/10/04 09:13:21;;;;;;;3.50;1.80;;;;;;;;;;741557;186;917971;-65
2022/10/04 09:15:50;;;;;;;3.80;1.77;;;;;;;;;;739642;186;919243;-65
2022/10/04 09:18:20;;;;;;;6.07;1.60;;;;;;;;;;748732;187;896823;-65
2022/10/04 09:20:50;;;;;;;3.97;1.57;;;;;;;;;;745653;186;917859;-65
2022/10/04 09:23:33;;;;;;;7.57;2.07;;;;;;;;;;748659;186;920558;-71
2022/10/04 09:26:04;;;;;;;4.13;1.63;;;;;;;;;;745745;186;866872;-66
2022/10/04 09:28:29;;;;;;;10.73;2.10;;;;;;;;;;744368;187;882126;-66
2022/10/04 09:30:57;;;;;;;10.10;2.90;;;;;;;;;;745341;187;912563;-71
2022/10/04 09:33:29;;;;;;;3.10;1.20;;;;;;;;;;743193;185;817021;-70
2022/10/04 09:36:11;;;;;;;6.33;1.73;;;;;;;;;;740536;187;919018;-72
2022/10/04 09:38:41;;;;;;;7.53;1.80;;;;;;;;;;742144;187;919462;-65
2022/10/04 09:41:13;;;;;;;19.80;12.90;;;;;;;;;;742066;186;919462;-64
2022/10/04 09:43:45;;;;;;;7.93;1.60;;;;;;;;;;742979;186;918222;-65
2022/10/04 09:46:14;;;;;;;7.63;2.53;;;;;;;;;;746995;186;918878;-65
2022/10/04 09:48:38;;;;;;;4.13;2.00;;;;;;;;;;743814;185;819361;-65
2022/10/04 09:51:19;;;;;;;6.70;3.30;;;;;;;;;;743346;187;919222;-71
2022/10/04 09:53:51;;;;;;;5.70;2.03;;;;;;;;;;743708;180;816740;-66
2022/10/04 09:56:32;;;;;;;4.40;2.50;;;;;;;;;;741719;186;919556;-70
2022/10/04 09:59:12;;;;;;;3.60;1.97;;;;;;;;;;738374;187;918743;-71
2022/10/04 10:01:39;;;;;;;6.33;2.10;;;;;;;;;;749887;187;919494;-65
2022/10/04 10:04:19;;;;;;;5.67;1.97;;;;;;;;;;749973;187;897746;-71
2022/10/04 10:06:48;;;;;;;7.00;2.00;;;;;;;;;;745516;187;919638;-71
2022/10/04 10:09:14;;;;;;;5.68;2.17;;;;;;;;;;740829;187;919482;-65
2022/10/04 10:14:25;;;;;;;8.00;2.20;;;;;;;;;;742700;187;815566;-71
2022/10/04 10:17:09;;;;;;;4.43;1.53;;;;;;;;;;746784;187;918291;-71
2022/10/04 10:19:52;;;;;;;5.20;2.20;;;;;;;;;;747376;186;882895;-65
2022/10/04 10:22:38;;;;;;;5.87;2.70;;;;;;;;;;750647;186;919437;-70
2022/10/04 10:25:21;;;;;;;6.20;1.67;;;;;;;;;;749309;186;915195;-65
2022/10/04 10:27:47;;;;;;;7.93;2.12;;;;;;;;;;747864;186;918117;-71
2022/10/04 10:30:15;;;;;;;7.97;1.73;;;;;;;;;;742400;186;920031;-64
2022/10/04 10:32:55;;;;;;;5.90;3.50;;;;;;;;;;742976;186;920974;-65
2022/10/04 10:35:26;;;;;;;6.20;2.77;;;;;;;;;;744506;185;919300;-69
2022/10/04 10:38:08;;;;;;;10.30;2.85;;;;;;;;;;742147;187;938256;-71
2022/10/04 10:40:35;;;;;;;4.10;2.03;;;;;;;;;;743144;185;919306;-69
2022/10/04 10:43:17;;;;;;;3.90;2.20;;;;;;;;;;746025;186;842976;-63
2022/10/04 10:45:44;;;;;;;4.50;1.73;;;;;;;;;;752296;184;899102;-70
2022/10/04 10:48:12;;;;;;;8.73;3.00;;;;;;;;;;741591;187;917429;-70
2022/10/04 10:50:57;;;;;;;5.43;1.73;;;;;;;;;;741923;187;917863;-69
2022/10/04 10:53:10;;;;;;;4.83;1.60;;;;;;;;;;739147;187;917770;-63
2022/10/04 10:55:43;;;;;;;3.17;1.40;;;;;;;;;;746817;186;918910;-63
2022/10/04 10:58:25;;;;;;;9.63;3.30;;;;;;;;;;739319;186;918089;-69
2022/10/04 11:01:05;;;;;;;4.60;2.17;;;;;;;;;;746692;185;921024;-69
2022/10/04 11:03:37;;;;;;;4.60;2.03;;;;;;;;;;748983;185;914942;-69
2022/10/04 11:06:06;;;;;;;7.07;2.00;;;;;;;;;;744847;187;918711;-63
2022/10/04 11:08:34;;;;;;;4.23;2.53;;;;;;;;;;743139;187;920214;-63
2022/10/04 11:11:02;;;;;;;3.33;1.73;;;;;;;;;;745764;187;913322;-70
2022/10/04 11:13:47;;;;;;;5.57;2.27;;;;;;;;;;739072;187;919712;-64
2022/10/04 11:16:12;;;;;;;6.63;2.40;;;;;;;;;;751967;186;816650;-62
2022/10/04 11:18:44;;;;;;;3.73;1.83;;;;;;;;;;740437;187;817062;-63
2022/10/04 11:21:26;;;;;;;5.90;2.70;;;;;;;;;;741522;187;916997;-69
2022/10/04 11:23:52;;;;;;;5.10;2.50;;;;;;;;;;739132;187;819675;-63
2022/10/04 11:26:38;;;;;;;8.30;3.07;;;;;;;;;;747091;186;816410;-69
2022/10/04 11:29:19;;;;;;;7.10;1.70;;;;;;;;;;750422;187;1010950;-68
2022/10/04 11:31:53;;;;;;;3.97;1.80;;;;;;;;;;737618;187;920721;-62
2022/10/04 11:34:22;;;;;;;3.57;1.63;;;;;;;;;;749341;185;904364;-70
2022/10/04 11:37:03;;;;;;;4.18;1.80;;;;;;;;;;743741;186;918806;-69
2022/10/04 11:39:45;;;;;;;4.13;2.20;;;;;;;;;;741441;185;917310;-63
2022/10/04 11:42:17;;;;;;;4.20;1.70;;;;;;;;;;746733;184;916793;-68
2022/10/04 11:44:53;;;;;;;7.67;2.10;;;;;;;;;;742582;185;919502;-62
2022/10/04 11:47:28;;;;;;;6.57;1.33;;;;;;;;;;742846;185;919065;-61
2022/10/04 11:49:58;;;;;;;4.30;1.53;;;;;;;;;;742846;187;918332;-61
2022/10/04 11:52:29;;;;;;;4.93;1.67;;;;;;;;;;748390;187;921162;-61
2022/10/04 11:54:56;;;;;;;4.63;1.77;;;;;;;;;;741493;187;916897;-69
2022/10/04 11:57:25;;;;;;;4.20;1.80;;;;;;;;;;741052;187;919429;-61
2022/10/04 12:00:00;;;;;;;4.10;1.20;;;;;;;;;;743037;187;917707;-62
2022/10/04 12:02:31;;;;;;;3.37;1.40;;;;;;;;;;741572;186;919049;-68
2022/10/04 12:04:55;;;;;;;14.30;2.07;;;;;;;;;;750085;186;919423;-69
2022/10/04 12:07:21;;;;;;;4.17;1.40;;;;;;;;;;737709;186;918720;-69
2022/10/04 12:09:52;;;;;;;4.90;1.50;;;;;;;;;;740945;187;919571;-62
2022/10/04 12:15:02;;;;;;;4.43;1.47;;;;;;;;;;748676;184;914026;-62
2022/10/04 12:17:32;;;;;;;8.23;1.50;;;;;;;;;;743356;185;895970;-69
2022/10/04 12:20:01;;;;;;;2.60;1.58;;;;;;;;;;742322;187;921179;-69
2022/10/04 12:22:27;;;;;;;6.10;1.80;;;;;;;;;;742281;187;917048;-61
2022/10/04 12:24:57;;;;;;;6.93;1.50;;;;;;;;;;746343;187;915059;-61
2022/10/04 12:27:37;;;;;;;7.90;1.63;;;;;;;;;;740652;187;921363;-67
2022/10/04 12:30:04;;;;;;;4.10;1.43;;;;;;;;;;737405;186;914772;-69
2022/10/04 12:32:32;;;;;;;6.47;1.87;;;;;;;;;;742970;186;916330;-62
2022/10/04 12:35:04;;;;;;;5.07;2.10;;;;;;;;;;743743;186;908417;-69
2022/10/04 12:37:29;;;;;;;4.83;1.77;;;;;;;;;;750757;187;618662;-69
2022/10/04 12:39:55;;;;;;;3.90;1.80;;;;;;;;;;740802;187;933402;-69
2022/10/04 12:42:27;;;;;;;5.47;2.20;;;;;;;;;;737814;187;917862;-60
2022/10/04 12:44:55;;;;;;;7.23;1.83;;;;;;;;;;742059;187;921254;-62
2022/10/04 12:47:26;;;;;;;4.10;1.70;;;;;;;;;;747400;187;917136;-69
2022/10/04 12:49:56;;;;;;;6.93;2.10;;;;;;;;;;745957;187;818732;-62
2022/10/04 12:52:23;;;;;;;7.20;2.17;;;;;;;;;;745012;187;818118;-69
2022/10/04 12:54:50;;;;;;;5.83;1.97;;;;;;;;;;744405;186;919256;-70
2022/10/04 12:57:20;;;;;;;6.20;2.20;;;;;;;;;;748864;186;918976;-62
2022/10/04 13:00:02;;;;;;;4.20;2.00;;;;;;;;;;743733;186;816753;-70
2022/10/04 13:02:33;;;;;;;5.07;1.80;;;;;;;;;;742832;185;914267;-69
2022/10/04 13:04:59;;;;;;;5.00;1.80;;;;;;;;;;741969;186;919280;-62
2022/10/04 13:07:31;;;;;;;4.93;1.73;;;;;;;;;;743201;187;913673;-70
2022/10/04 13:10:01;;;;;;;12.27;2.07;;;;;;;;;;749630;187;916808;-69
2022/10/04 13:12:33;;;;;;;7.57;1.97;;;;;;;;;;748422;186;825034;-63
2022/10/04 13:15:05;;;;;;;9.82;2.55;;;;;;;;;;744708;187;918494;-70
2022/10/04 13:17:31;;;;;;;5.70;1.87;;;;;;;;;;741553;186;925295;-70
2022/10/04 13:20:00;;;;;;;4.97;2.47;;;;;;;;;;747101;186;818891;-63
2022/10/04 13:22:28;;;;;;;5.80;2.40;;;;;;;;;;745409;186;919093;-70
2022/10/04 13:25:09;;;;;;;4.20;1.73;;;;;;;;;;740076;186;915436;-69
2022/10/04 13:27:37;;;;;;;9.20;2.20;;;;;;;;;;741704;186;918267;-71
2022/10/04 13:30:05;;;;;;;4.67;2.00;;;;;;;;;;743486;187;918535;-70
2022/10/04 13:32:31;;;;;;;5.50;2.03;;;;;;;;;;746073;187;918566;-70
2022/10/04 13:35:16;;;;;;;6.10;1.90;;;;;;;;;;738999;186;919380;-70
2022/10/04 13:37:47;;;;;;;5.07;2.20;;;;;;;;;;741234;186;918824;-70
2022/10/04 13:40:33;;;;;;;7.07;2.33;;;;;;;;;;740219;185;918051;-63
2022/10/04 13:43:14;;;;;;;4.00;2.00;;;;;;;;;;747534;185;919351;-62
2022/10/04 13:46:01;;;;;;;3.23;2.03;;;;;;;;;;747071;183;918606;-70
2022/10/04 13:48:31;;;;;;;6.20;2.70;;;;;;;;;;741385;185;919174;-63
2022/10/04 13:51:02;;;;;;;9.00;2.70;;;;;;;;;;741222;186;919184;-70
2022/10/04 13:56:35;;;;;;;4.03;2.33;;;;;;;;;;736401;186;920917;-63
2022/10/04 13:59:03;;;;;;;5.03;2.35;;;;;;;;;;729568;185;920899;-71
2022/10/04 14:01:34;;;;;;;5.30;3.00;;;;;;;;;;742040;186;921209;-69
2022/10/04 14:04:06;;;;;;;7.43;2.33;;;;;;;;;;744957;187;914613;-70
2022/10/04 14:06:33;;;;;;;6.22;2.85;;;;;;;;;;744846;185;874010;-69
2022/10/04 14:09:14;;;;;;;3.50;2.40;;;;;;;;;;744339;185;919122;-62
2022/10/04 14:11:42;;;;;;;4.47;2.50;;;;;;;;;;744296;185;825316;-71
2022/10/04 14:14:09;;;;;;;6.37;3.90;;;;;;;;;;743655;184;921252;-63
2022/10/04 14:16:34;;;;;;;5.83;2.93;;;;;;;;;;745772;187;918449;-63
2022/10/04 14:19:20;;;;;;;5.57;4.00;;;;;;;;;;745271;187;812424;-70
2022/10/04 14:21:53;;;;;;;5.47;2.77;;;;;;;;;;736796;186;802244;-70
2022/10/04 14:24:21;;;;;;;5.00;2.90;;;;;;;;;;745250;186;837403;-63
2022/10/04 14:26:48;;;;;;;7.87;3.40;;;;;;;;;;740000;187;920208;-61
2022/10/04 14:29:14;;;;;;;7.90;2.80;;;;;;;;;;745716;187;916416;-62
2022/10/04 14:31:41;;;;;;;4.23;2.23;;;;;;;;;;743026;186;889313;-61
2022/10/04 14:34:11;;;;;;;6.03;3.17;;;;;;;;;;740621;187;919336;-61
2022/10/04 14:36:43;;;;;;;6.80;2.73;;;;;;;;;;740098;187;919642;-68
2022/10/04 14:39:09;;;;;;;15.40;3.20;;;;;;;;;;747939;186;816925;-61
2022/10/04 14:41:36;;;;;;;6.50;3.47;;;;;;;;;;744252;187;920190;-69
2022/10/04 14:44:09;;;;;;;5.37;3.23;;;;;;;;;;741600;187;919363;-68
2022/10/04 14:46:40;;;;;;;5.93;3.00;;;;;;;;;;743847;185;917894;-62
2022/10/04 14:49:12;;;;;;;6.90;2.70;;;;;;;;;;749618;186;816624;-61
2022/10/04 14:51:39;;;;;;;5.47;2.70;;;;;;;;;;737252;186;919788;-70
2022/10/04 14:54:09;;;;;;;5.70;3.00;;;;;;;;;;739130;186;919909;-69